Time;durP1;ratioP1;P1;durP2;ratioP2;P2;SDS_P1;SDS_P2;PMS_P1;PMS_P2;Temp;Humidity;BMP_temperature;BMP_pressure;BME280_temperature;BME280_humidity;BME280_pressure;Samples;Min_cycle;Max_cycle;Signal;HPM_P1;HPM_P2
2021/07/08 00:01:38;;;;;;;;;;;;;;;25.78;38.12;101942.97;4977671;28;19921;-83
2021/07/08 00:04:04;;;;;;;;;;;;;;;25.58;38.88;101936.53;4995209;28;19914;-83
2021/07/08 00:06:31;;;;;;;;;;;;;;;25.66;38.59;101936.69;4977758;28;20279;-83
2021/07/08 00:08:56;;;;;;;;;;;;;;;25.65;38.76;101929.38;4977825;28;20371;-82
2021/07/08 00:11:21;;;;;;;;;;;;;;;25.56;39.17;101933.03;4977297;28;20044;-85
2021/07/08 00:13:48;;;;;;;;;;;;;;;25.73;38.62;101946.16;4977737;28;19937;-83
2021/07/08 00:16:13;;;;;;;;;;;;;;;25.06;40.04;101948.69;4980480;28;19918;-85
2021/07/08 00:18:38;;;;;;;;;;;;;;;25.10;39.76;101950.13;4978257;28;20076;-83
2021/07/08 00:21:03;;;;;;;;;;;;;;;25.28;39.29;101953.06;4980746;28;19922;-84
2021/07/08 00:23:29;;;;;;;;;;;;;;;25.18;39.47;101946.63;4977779;28;19918;-83
2021/07/08 00:25:55;;;;;;;;;;;;;;;25.45;39.36;101953.44;4995056;28;19918;-84
2021/07/08 00:28:21;;;;;;;;;;;;;;;25.26;39.95;101954.25;4977216;28;19945;-83
2021/07/08 00:30:48;;;;;;;;;;;;;;;25.27;39.96;101950.44;4994635;28;19964;-84
2021/07/08 00:33:13;;;;;;;;;;;;;;;25.31;40.05;101949.19;4995428;28;19957;-82
2021/07/08 00:35:39;;;;;;;;;;;;;;;24.73;41.07;101947.97;4978305;28;20389;-84
2021/07/08 00:38:05;;;;;;;;;;;;;;;24.88;41.18;101944.81;4978419;28;19925;-83
2021/07/08 00:40:31;;;;;;;;;;;;;;;24.91;40.99;101944.53;4979632;28;19918;-84
2021/07/08 00:42:56;;;;;;;;;;;;;;;25.11;40.45;101946.34;4979212;28;19929;-83
2021/07/08 00:45:23;;;;;;;;;;;;;;;24.59;41.77;101943.69;4997111;28;19921;-84
2021/07/08 00:47:48;;;;;;;;;;;;;;;24.58;42.03;101947.47;4979032;28;19921;-83
2021/07/08 00:50:15;;;;;;;;;;;;;;;24.83;41.45;101944.34;4979258;28;19921;-83
2021/07/08 00:52:40;;;;;;;;;;;;;;;24.85;41.35;101947.84;4978079;28;19917;-83
2021/07/08 00:55:06;;;;;;;;;;;;;;;24.72;41.61;101946.19;4977914;28;19968;-83
2021/07/08 00:57:32;;;;;;;;;;;;;;;24.51;42.23;101951.75;4995321;28;19978;-82
2021/07/08 00:59:57;;;;;;;;;;;;;;;24.79;41.83;101948.41;4977755;28;19972;-83
2021/07/08 01:02:23;;;;;;;;;;;;;;;24.82;41.28;101956.44;4995279;28;20009;-83
2021/07/08 01:04:48;;;;;;;;;;;;;;;24.64;42.19;101956.22;4977894;28;20387;-83
2021/07/08 01:07:22;;;;;;;;;;;;;;;24.58;42.25;101954.91;4977749;28;19925;-84
2021/07/08 01:09:48;;;;;;;;;;;;;;;24.91;41.44;101956.50;4977240;28;19972;-84
2021/07/08 01:12:13;;;;;;;;;;;;;;;24.65;42.00;101960.75;4977815;28;19918;-83
2021/07/08 01:14:38;;;;;;;;;;;;;;;24.76;41.88;101967.06;4995129;28;20013;-82
2021/07/08 01:17:05;;;;;;;;;;;;;;;24.74;42.46;101963.56;4978102;28;19917;-83
2021/07/08 01:19:31;;;;;;;;;;;;;;;24.78;42.42;101969.69;4977462;28;19962;-83
2021/07/08 01:21:56;;;;;;;;;;;;;;;24.83;42.18;101974.81;4978315;28;19925;-84
2021/07/08 01:24:21;;;;;;;;;;;;;;;25.31;41.21;101971.34;4978733;28;19937;-84
2021/07/08 01:26:47;;;;;;;;;;;;;;;25.27;41.60;101965.19;4978754;28;19930;-82
2021/07/08 01:29:14;;;;;;;;;;;;;;;25.02;42.18;101969.34;4978791;28;19945;-82
2021/07/08 01:31:42;;;;;;;;;;;;;;;24.98;42.70;101970.63;4978422;28;19918;-83
2021/07/08 01:34:07;;;;;;;;;;;;;;;25.09;42.41;101969.66;4996184;28;20416;-84
2021/07/08 01:36:32;;;;;;;;;;;;;;;25.07;42.63;101980.00;4996182;28;19925;-84
2021/07/08 01:38:57;;;;;;;;;;;;;;;25.21;42.44;101981.50;4978776;28;19949;-84
2021/07/08 01:41:23;;;;;;;;;;;;;;;25.09;42.47;101976.09;4978451;28;19929;-83
2021/07/08 01:43:48;;;;;;;;;;;;;;;25.12;42.28;101967.50;4978868;28;19922;-83
2021/07/08 01:46:15;;;;;;;;;;;;;;;25.31;42.03;101976.88;4978784;28;20008;-83
2021/07/08 01:48:41;;;;;;;;;;;;;;;25.40;41.89;101967.72;4978411;28;20344;-85
2021/07/08 01:51:15;;;;;;;;;;;;;;;25.36;41.70;101977.31;4978652;28;19918;-84
2021/07/08 01:53:41;;;;;;;;;;;;;;;25.23;42.09;101972.03;4978566;28;20008;-83
2021/07/08 01:56:06;;;;;;;;;;;;;;;25.12;41.94;101967.50;4996270;28;20417;-84
2021/07/08 01:58:31;;;;;;;;;;;;;;;25.04;42.35;101966.44;4977911;28;19953;-84
2021/07/08 02:00:56;;;;;;;;;;;;;;;25.25;41.97;101964.44;4977430;28;19925;-84
2021/07/08 02:03:22;;;;;;;;;;;;;;;25.10;42.47;101961.19;4977396;28;19925;-84
2021/07/08 02:05:47;;;;;;;;;;;;;;;25.00;42.60;101960.31;4979072;28;19929;-83
2021/07/08 02:08:12;;;;;;;;;;;;;;;25.46;41.46;101950.53;4979241;28;19921;-84
2021/07/08 02:10:38;;;;;;;;;;;;;;;25.35;42.18;101958.06;4979058;28;19964;-84
2021/07/08 02:13:04;;;;;;;;;;;;;;;25.51;41.50;101949.22;4981197;28;19922;-84
2021/07/08 02:15:29;;;;;;;;;;;;;;;25.43;42.09;101948.03;4981709;28;19922;-84
2021/07/08 02:17:54;;;;;;;;;;;;;;;25.38;42.37;101955.91;4999533;28;19924;-84
2021/07/08 02:20:19;;;;;;;;;;;;;;;25.31;42.22;101954.72;4979807;28;19918;-84
2021/07/08 02:22:45;;;;;;;;;;;;;;;25.19;42.61;101959.47;4981521;28;19922;-84
2021/07/08 02:25:11;;;;;;;;;;;;;;;25.29;42.23;101965.06;4982809;28;19918;-84
2021/07/08 02:27:37;;;;;;;;;;;;;;;25.31;42.62;101960.28;4982464;28;20359;-83
2021/07/08 02:30:09;;;;;;;;;;;;;;;24.81;43.95;101958.34;5000169;28;19918;-83
2021/07/08 02:32:34;;;;;;;;;;;;;;;25.06;43.66;101954.22;4999914;28;20351;-84
2021/07/08 02:35:00;;;;;;;;;;;;;;;25.45;42.37;101953.44;4982476;28;19949;-83
2021/07/08 02:37:25;;;;;;;;;;;;;;;25.37;42.59;101953.28;4982181;28;20012;-83
2021/07/08 02:39:50;;;;;;;;;;;;;;;25.79;41.60;101948.34;4999712;28;19943;-83
2021/07/08 02:42:15;;;;;;;;;;;;;;;25.65;41.63;101951.53;4999943;28;19929;-82
2021/07/08 02:44:40;;;;;;;;;;;;;;;25.51;42.07;101946.44;4982289;28;19928;-82
2021/07/08 02:47:06;;;;;;;;;;;;;;;25.13;43.01;101955.38;4981852;28;20359;-83
2021/07/08 02:49:31;;;;;;;;;;;;;;;25.00;43.51;101948.34;4982402;28;20315;-84
2021/07/08 02:51:56;;;;;;;;;;;;;;;25.02;43.25;101951.88;4981923;28;19918;-83
2021/07/08 02:54:21;;;;;;;;;;;;;;;25.47;41.98;101945.88;4982007;28;19922;-84
2021/07/08 02:56:47;;;;;;;;;;;;;;;25.52;41.66;101943.53;4981708;28;19957;-83
2021/07/08 02:59:12;;;;;;;;;;;;;;;25.10;42.72;101947.34;4981630;28;19972;-83
2021/07/08 03:01:37;;;;;;;;;;;;;;;25.04;42.70;101947.91;4999747;28;20348;-84
2021/07/08 03:04:05;;;;;;;;;;;;;;;24.66;43.56;101955.06;4982094;28;19925;-82
2021/07/08 03:06:30;;;;;;;;;;;;;;;24.63;43.33;101947.03;4981923;28;19964;-84
2021/07/08 03:08:56;;;;;;;;;;;;;;;24.73;42.94;101947.97;4982288;28;19918;-84
2021/07/08 03:11:23;;;;;;;;;;;;;;;24.89;42.48;101946.56;4999647;28;19922;-84
2021/07/08 03:13:48;;;;;;;;;;;;;;;25.07;41.81;101942.09;4981845;28;19922;-83
2021/07/08 03:16:13;;;;;;;;;;;;;;;24.85;42.67;101947.84;4999112;28;19941;-83
2021/07/08 03:18:39;;;;;;;;;;;;;;;24.42;44.39;101945.16;4980064;28;19918;-85
2021/07/08 03:21:04;;;;;;;;;;;;;;;24.47;43.98;101941.09;4995676;28;19918;-83
2021/07/08 03:23:29;;;;;;;;;;;;;;;24.69;43.42;101949.25;4978135;28;19972;-83
2021/07/08 03:25:54;;;;;;;;;;;;;;;25.09;42.44;101951.16;4977985;28;19918;-82
2021/07/08 03:28:22;;;;;;;;;;;;;;;25.36;41.39;101951.53;4995519;28;20008;-84
2021/07/08 03:30:48;;;;;;;;;;;;;;;25.19;41.69;101942.00;4996877;28;19922;-83
2021/07/08 03:33:13;;;;;;;;;;;;;;;25.26;41.87;101943.19;4996620;28;19918;-84
2021/07/08 03:35:38;;;;;;;;;;;;;;;24.74;43.25;101946.97;4979342;28;19918;-85
2021/07/08 03:38:05;;;;;;;;;;;;;;;25.19;42.28;101953.06;4979188;28;19918;-83
2021/07/08 03:40:32;;;;;;;;;;;;;;;25.01;42.60;101952.88;4978812;28;19941;-84
2021/07/08 03:42:58;;;;;;;;;;;;;;;25.02;42.79;101952.72;4978885;28;19926;-84
2021/07/08 03:45:23;;;;;;;;;;;;;;;25.14;42.35;101950.72;4962933;28;19929;-84
2021/07/08 03:47:49;;;;;;;;;;;;;;;25.21;42.94;101945.50;4978951;28;20345;-83
2021/07/08 03:50:15;;;;;;;;;;;;;;;25.02;43.13;101952.72;4981238;28;19918;-84
2021/07/08 03:52:42;;;;;;;;;;;;;;;25.12;42.71;101961.94;4999646;28;19917;-83
2021/07/08 03:55:08;;;;;;;;;;;;;;;25.06;42.90;101968.06;4982256;28;19918;-84
2021/07/08 03:57:33;;;;;;;;;;;;;;;25.37;42.13;101970.78;4999354;28;20009;-84
2021/07/08 03:59:58;;;;;;;;;;;;;;;25.61;41.75;101973.16;4981843;28;19950;-83
2021/07/08 04:02:26;;;;;;;;;;;;;;;25.41;42.21;101979.66;4982018;28;19929;-84
2021/07/08 04:04:51;;;;;;;;;;;;;;;24.87;43.85;101981.81;4981250;28;19918;-83
2021/07/08 04:07:16;;;;;;;;;;;;;;;25.08;43.44;101979.84;4979825;28;20361;-84
2021/07/08 04:09:42;;;;;;;;;;;;;;;24.80;44.45;101977.84;4980516;28;19921;-85
2021/07/08 04:12:07;;;;;;;;;;;;;;;24.40;46.00;101980.38;4979813;28;19930;-82
2021/07/08 04:14:35;;;;;;;;;;;;;;;24.35;46.27;101977.16;4980515;28;19918;-83
2021/07/08 04:17:01;;;;;;;;;;;;;;;24.81;44.98;101968.53;4997997;28;19920;-84
2021/07/08 04:19:26;;;;;;;;;;;;;;;25.23;43.77;101965.63;4982362;28;19996;-84
2021/07/08 04:21:51;;;;;;;;;;;;;;;25.52;42.66;101970.38;4983815;28;20375;-83
2021/07/08 04:24:17;;;;;;;;;;;;;;;25.64;42.26;101963.66;4982976;28;20292;-82
2021/07/08 04:26:43;;;;;;;;;;;;;;;25.69;42.33;101974.31;4997921;28;19917;-83
2021/07/08 04:29:08;;;;;;;;;;;;;;;25.39;43.12;101982.56;4979302;28;19925;-84
2021/07/08 04:31:33;;;;;;;;;;;;;;;24.90;44.76;101978.78;4979712;28;19924;-83
2021/07/08 04:34:00;;;;;;;;;;;;;;;24.71;44.95;101985.94;4981480;28;19918;-84
2021/07/08 04:36:25;;;;;;;;;;;;;;;25.42;43.27;101978.66;4999734;28;20016;-84
2021/07/08 04:38:53;;;;;;;;;;;;;;;25.24;43.79;101983.97;4981081;28;20360;-85
2021/07/08 04:41:21;;;;;;;;;;;;;;;25.44;42.81;101979.41;4981142;28;19940;-85
2021/07/08 04:43:46;;;;;;;;;;;;;;;25.59;42.78;101979.84;4980507;28;19918;-83
2021/07/08 04:46:12;;;;;;;;;;;;;;;25.70;42.31;101982.50;4982116;28;19924;-85
2021/07/08 04:48:37;;;;;;;;;;;;;;;25.67;42.54;101991.09;4984929;28;19929;-84
2021/07/08 04:51:05;;;;;;;;;;;;;;;25.77;42.38;101991.97;5001823;28;19918;-85
2021/07/08 04:53:30;;;;;;;;;;;;;;;25.90;42.05;101996.34;4984410;28;19917;-85
2021/07/08 04:55:55;;;;;;;;;;;;;;;25.90;41.76;101993.59;4984409;28;19924;-85
2021/07/08 04:58:20;;;;;;;;;;;;;;;25.67;42.54;101993.88;5000835;28;19918;-86
2021/07/08 05:00:46;;;;;;;;;;;;;;;25.23;43.55;102002.50;5000760;28;19924;-85
2021/07/08 05:03:11;;;;;;;;;;;;;;;25.78;42.63;101993.72;4982660;28;20028;-82
2021/07/08 05:05:37;;;;;;;;;;;;;;;25.93;41.88;101996.94;4982518;28;20287;-84
2021/07/08 05:08:03;;;;;;;;;;;;;;;25.95;42.26;102000.47;4981481;28;19925;-84
2021/07/08 05:10:30;;;;;;;;;;;;;;;25.94;42.28;102004.25;4981845;28;19918;-83
2021/07/08 05:12:55;;;;;;;;;;;;;;;25.96;42.50;102009.63;4980330;28;20307;-83
2021/07/08 05:15:24;;;;;;;;;;;;;;;26.28;41.85;102016.81;4981746;28;20411;-84
2021/07/08 05:17:49;;;;;;;;;;;;;;;26.29;41.75;102007.47;4984181;28;19918;-83
2021/07/08 05:20:15;;;;;;;;;;;;;;;26.29;42.04;102010.25;4984463;28;19925;-83
2021/07/08 05:22:46;;;;;;;;;;;;;;;25.80;42.87;102012.97;4984139;28;19928;-85
2021/07/08 05:25:13;;;;;;;;;;;;;;;25.53;43.21;102020.09;4987278;28;19917;-84
2021/07/08 05:27:38;;;;;;;;;;;;;;;25.57;43.44;102023.47;4984753;28;20283;-85
2021/07/08 05:30:05;;;;;;;;;;;;;;;24.58;45.67;102022.16;5016836;28;19922;-87
2021/07/08 05:32:30;;;;;;;;;;;;;;;25.43;43.83;102033.91;5001923;28;20410;-86
2021/07/08 05:34:56;;;;;;;;;;;;;;;25.64;43.53;102031.06;4984096;28;19922;-85
2021/07/08 05:37:21;;;;;;;;;;;;;;;25.82;43.07;102033.13;5002022;28;19956;-86
2021/07/08 05:39:46;;;;;;;;;;;;;;;25.95;43.17;102039.28;4999515;28;19961;-87
2021/07/08 05:42:12;;;;;;;;;;;;;;;25.82;43.49;102044.22;4999097;28;19933;-85
2021/07/08 05:44:37;;;;;;;;;;;;;;;25.85;43.56;102038.38;4981910;28;20037;-87
2021/07/08 05:47:02;;;;;;;;;;;;;;;25.78;43.68;102043.63;4981656;28;20009;-85
2021/07/08 05:49:28;;;;;;;;;;;;;;;24.95;45.80;102049.28;4999539;28;19928;-88
2021/07/08 05:51:54;;;;;;;;;;;;;;;25.44;45.01;102049.53;4982421;28;20009;-85
2021/07/08 05:54:20;;;;;;;;;;;;;;;26.33;42.90;102053.28;4979739;28;19972;-86
2021/07/08 05:56:47;;;;;;;;;;;;;;;25.83;43.99;102052.41;4983350;28;19917;-86
2021/07/08 05:59:12;;;;;;;;;;;;;;;26.76;41.69;102053.84;4984122;28;19917;-86
2021/07/08 06:01:37;;;;;;;;;;;;;;;25.88;43.89;102060.28;4984642;28;19928;-86
2021/07/08 06:04:02;;;;;;;;;;;;;;;26.46;42.28;102059.41;4983207;28;19914;-83
2021/07/08 06:06:28;;;;;;;;;;;;;;;26.20;43.17;102063.84;5001373;28;20399;-84
2021/07/08 06:08:54;;;;;;;;;;;;;;;26.49;42.25;102070.22;4984717;28;20049;-87
2021/07/08 06:11:19;;;;;;;;;;;;;;;26.46;42.83;102069.66;4984827;28;20271;-83
2021/07/08 06:13:45;;;;;;;;;;;;;;;26.65;42.43;102069.63;5002317;28;19921;-83
2021/07/08 06:16:10;;;;;;;;;;;;;;;26.49;42.76;102073.00;5001863;28;19918;-86
2021/07/08 06:18:37;;;;;;;;;;;;;;;26.39;43.16;102077.69;4984781;28;19918;-86
2021/07/08 06:21:02;;;;;;;;;;;;;;;26.10;43.46;102084.09;4984709;28;19941;-84
2021/07/08 06:23:28;;;;;;;;;;;;;;;26.37;42.28;102085.28;4985125;28;19922;-88
2021/07/08 06:25:53;;;;;;;;;;;;;;;26.12;42.21;102087.63;4984948;28;19941;-85
2021/07/08 06:28:18;;;;;;;;;;;;;;;26.80;40.61;102095.03;5002295;28;19918;-86
2021/07/08 06:30:44;;;;;;;;;;;;;;;26.42;41.15;102095.94;4986131;28;19924;-87
2021/07/08 06:35:39;;;;;;;;;;;;;;;25.80;41.72;102105.34;5004666;28;19926;-88
2021/07/08 06:38:04;;;;;;;;;;;;;;;27.11;39.69;102108.69;4986715;28;19940;-85
2021/07/08 06:40:30;;;;;;;;;;;;;;;26.63;40.12;102104.09;4984392;28;20386;-84
2021/07/08 06:42:57;;;;;;;;;;;;;;;27.43;38.67;102104.63;4985313;28;20008;-87
2021/07/08 06:45:22;;;;;;;;;;;;;;;27.31;38.86;102108.63;4985117;28;20376;-85
2021/07/08 06:47:51;;;;;;;;;;;;;;;27.11;39.32;102105.91;5002661;28;19977;-85
2021/07/08 06:50:16;;;;;;;;;;;;;;;26.72;40.77;102111.56;4985544;28;19925;-85
2021/07/08 06:52:42;;;;;;;;;;;;;;;27.44;38.89;102109.19;4984167;28;19921;-87
2021/07/08 06:55:08;;;;;;;;;;;;;;;26.66;40.53;102112.13;4983853;28;19941;-85
2021/07/08 06:57:34;;;;;;;;;;;;;;;27.50;38.97;102114.13;4987031;28;19919;-81
2021/07/08 07:02:27;;;;;;;;;;;;;;;27.37;39.03;102124.72;5026857;28;19925;-81
2021/07/08 07:04:52;;;;;;;;;;;;;;;27.22;38.87;102116.84;5016863;23;19931;-81
2021/07/08 07:07:23;;;;;;;;;;;;;;;27.75;38.44;102108.88;5009390;28;19921;-81
2021/07/08 07:09:55;;;;;;;;;;;;;;;27.51;38.75;102109.47;5027043;28;19917;-83
2021/07/08 07:12:24;;;;;;;;;;;;;;;27.84;38.28;102105.16;5026728;28;20000;-82
2021/07/08 07:14:52;;;;;;;;;;;;;;;27.61;38.04;102103.84;5026326;28;19929;-84
2021/07/08 07:19:48;;;;;;;;;;;;;;;27.13;38.50;102102.97;5013412;23;19934;-81
2021/07/08 07:24:44;;;;;;;;;;;;;;;26.69;38.46;102097.97;5023500;28;19933;-84
2021/07/08 07:27:09;;;;;;;;;;;;;;;27.00;38.11;102097.78;5004562;28;19917;-82
2021/07/08 07:29:34;;;;;;;;;;;;;;;27.61;36.56;102106.63;5020503;28;19984;-85
2021/07/08 07:31:59;;;;;;;;;;;;;;;28.16;36.01;102102.91;5013912;23;19925;-82
2021/07/08 07:34:40;;;;;;;;;;;;;;;28.35;34.46;102099.09;5034015;23;19929;-81
2021/07/08 07:37:05;;;;;;;;;;;;;;;27.89;35.42;102104.69;4990595;28;20004;-81
2021/07/08 07:39:31;;;;;;;;;;;;;;;28.29;35.68;102107.06;5004375;28;19922;-87
2021/07/08 07:41:57;;;;;;;;;;;;;;;27.91;35.83;102099.84;4987881;28;19940;-85
2021/07/08 07:44:22;;;;;;;;;;;;;;;28.85;34.90;102095.69;4979106;28;19929;-86
2021/07/08 07:46:48;;;;;;;;;;;;;;;27.51;36.35;102101.97;4978767;28;19918;-86
2021/07/08 07:49:14;;;;;;;;;;;;;;;27.11;37.21;102096.72;4980251;28;19965;-87
2021/07/08 07:51:42;;;;;;;;;;;;;;;27.88;36.13;102094.59;4979717;28;19969;-85
2021/07/08 07:54:07;;;;;;;;;;;;;;;27.27;35.82;102104.41;4962559;28;19914;-85
2021/07/08 07:56:33;;;;;;;;;;;;;;;26.82;36.26;102117.97;4978899;28;19919;-89
2021/07/08 07:58:59;;;;;;;;;;;;;;;27.24;36.13;102103.66;4980002;28;20405;-87
2021/07/08 08:01:24;;;;;;;;;;;;;;;27.35;36.13;102105.41;4962321;28;20009;-85
2021/07/08 08:03:50;;;;;;;;;;;;;;;27.41;36.63;102103.94;4982242;28;19964;-86
2021/07/08 08:09:00;;;;;;;;;;;;;;;28.16;35.69;102102.91;5000334;28;19988;-86
2021/07/08 08:11:25;;;;;;;;;;;;;;;28.07;35.53;102100.06;4999433;28;19913;-84
2021/07/08 08:13:51;;;;;;;;;;;;;;;29.07;34.49;102098.97;4998107;28;20041;-82
2021/07/08 08:16:16;;;;;;;;;;;;;;;29.07;33.77;102099.84;4995367;28;19949;-84
2021/07/08 08:18:41;;;;;;;;;;;;;;;27.98;35.68;102105.69;4977212;28;19924;-85
2021/07/08 08:21:06;;;;;;;;;;;;;;;28.48;35.40;102096.78;4994134;28;19984;-84
2021/07/08 08:23:32;;;;;;;;;;;;;;;28.82;34.91;102093.22;4991157;28;19969;-84
2021/07/08 08:26:00;;;;;;;;;;;;;;;28.35;35.51;102096.31;4962762;28;19996;-82
2021/07/08 08:28:26;;;;;;;;;;;;;;;29.01;34.68;102096.84;4998004;28;19924;-88
2021/07/08 08:30:52;;;;;;;;;;;;;;;29.69;32.88;102090.41;4980938;28;19924;-84
2021/07/08 08:33:18;;;;;;;;;;;;;;;28.34;35.82;102106.59;4981327;28;19917;-86
2021/07/08 08:35:43;;;;;;;;;;;;;;;28.97;34.59;102113.00;4980285;28;20371;-84
2021/07/08 08:38:09;;;;;;;;;;;;;;;29.03;34.45;102105.91;4996253;28;19921;-83
2021/07/08 08:40:34;;;;;;;;;;;;;;;28.18;35.36;102111.97;4996661;28;19918;-86
2021/07/08 08:43:00;;;;;;;;;;;;;;;27.95;35.63;102115.19;4993402;28;19925;-84
2021/07/08 08:45:26;;;;;;;;;;;;;;;29.33;33.53;102113.81;4978353;28;19950;-85
2021/07/08 08:48:01;;;;;;;;;;;;;;;27.82;35.72;102107.22;4960005;28;19918;-85
2021/07/08 08:50:33;;;;;;;;;;;;;;;29.17;34.49;102102.53;4959773;28;20286;-85
2021/07/08 08:52:58;;;;;;;;;;;;;;;28.59;35.22;102092.88;4957208;28;19957;-84
2021/07/08 08:55:24;;;;;;;;;;;;;;;29.49;33.46;102087.03;4974321;28;19993;-83
2021/07/08 08:57:49;;;;;;;;;;;;;;;29.41;33.95;102092.56;4957373;28;19928;-84
2021/07/08 09:00:24;;;;;;;;;;;;;;;29.56;33.82;102088.13;4957598;28;19926;-84
2021/07/08 09:02:59;;;;;;;;;;;;;;;30.10;32.58;102082.16;4957618;28;19976;-84
2021/07/08 09:05:24;;;;;;;;;;;;;;;29.12;33.59;102091.00;4993040;28;20307;-84
2021/07/08 09:07:50;;;;;;;;;;;;;;;29.98;32.81;102092.78;4976323;28;19932;-84
2021/07/08 09:10:15;;;;;;;;;;;;;;;28.95;34.79;102088.09;4993980;28;20552;-81
2021/07/08 09:12:40;;;;;;;;;;;;;;;29.06;34.81;102105.59;4977147;28;19918;-84
2021/07/08 09:15:16;;;;;;;;;;;;;;;29.59;33.07;102101.72;4977250;28;19968;-82
2021/07/08 09:17:42;;;;;;;;;;;;;;;29.57;33.12;102106.56;4977317;28;19918;-84
2021/07/08 09:20:12;;;;;;;;;;;;;;;28.59;35.05;102110.47;4977717;28;19922;-84
2021/07/08 09:22:38;;;;;;;;;;;;;;;29.03;33.52;102117.91;4977935;28;19925;-84
2021/07/08 09:25:18;;;;;;;;;;;;;;;29.44;33.64;102117.31;4976365;28;19918;-83
2021/07/08 09:27:44;;;;;;;;;;;;;;;28.84;33.81;102109.78;4976246;28;19925;-84
2021/07/08 09:30:09;;;;;;;;;;;;;;;29.20;33.56;102102.19;4976845;28;19921;-83
2021/07/08 09:32:34;;;;;;;;;;;;;;;29.30;33.15;102108.53;4981278;28;19972;-82
2021/07/08 09:35:00;;;;;;;;;;;;;;;29.57;32.41;102095.41;4983493;28;19969;-83
2021/07/08 09:37:27;;;;;;;;;;;;;;;28.17;33.10;102099.97;5001461;28;19926;-83
2021/07/08 09:39:53;;;;;;;;;;;;;;;29.56;31.59;102103.97;4985937;28;19914;-84
2021/07/08 09:42:39;;;;;;;;;;;;;;;30.04;30.43;102108.88;4982326;28;19961;-85
2021/07/08 09:45:08;;;;;;;;;;;;;;;30.60;30.38;102094.25;4982175;28;19988;-84
2021/07/08 09:47:34;;;;;;;;;;;;;;;28.96;32.67;102112.16;4999162;28;19918;-85
2021/07/08 09:49:59;;;;;;;;;;;;;;;29.34;33.12;102103.53;4999008;28;20442;-84
2021/07/08 09:52:25;;;;;;;;;;;;;;;29.89;32.70;102104.97;4982025;28;19917;-84
2021/07/08 09:57:34;;;;;;;;;;;;;;;30.27;31.90;102115.69;5001702;28;19918;-84
2021/07/08 10:00:01;;;;;;;;;;;;;;;29.94;31.97;102119.31;4981789;28;20379;-83
2021/07/08 10:02:30;;;;;;;;;;;;;;;28.67;33.50;102125.50;4982124;28;19918;-86
2021/07/08 10:04:56;;;;;;;;;;;;;;;29.45;32.50;102133.00;4981585;28;19924;-86
2021/07/08 10:07:21;;;;;;;;;;;;;;;29.99;31.23;102128.00;4981593;28;19926;-86
2021/07/08 10:09:46;;;;;;;;;;;;;;;29.84;32.00;102133.38;4998692;28;19925;-84
2021/07/08 10:12:12;;;;;;;;;;;;;;;29.80;31.85;102143.13;4996213;28;19940;-84
2021/07/08 10:14:39;;;;;;;;;;;;;;;29.82;30.83;102137.41;4981409;28;20026;-83
2021/07/08 10:17:05;;;;;;;;;;;;;;;30.46;31.10;102146.09;4997172;28;19918;-82
2021/07/08 10:19:31;;;;;;;;;;;;;;;31.05;29.29;102145.94;4997447;28;19921;-83
2021/07/08 10:21:56;;;;;;;;;;;;;;;30.56;29.76;102145.94;4994430;28;20283;-83
2021/07/08 10:24:21;;;;;;;;;;;;;;;31.57;28.20;102144.59;4997169;28;20296;-83
2021/07/08 10:26:47;;;;;;;;;;;;;;;31.53;29.00;102151.56;4977214;28;20343;-82
2021/07/08 10:29:13;;;;;;;;;;;;;;;30.56;30.76;102152.41;4976341;28;19922;-81
2021/07/08 10:31:46;;;;;;;;;;;;;;;31.05;30.34;102159.91;5009278;28;19917;-82
2021/07/08 10:34:11;;;;;;;;;;;;;;;31.84;28.59;102163.91;4997820;28;19918;-81
2021/07/08 10:36:37;;;;;;;;;;;;;;;31.82;28.18;102166.88;5014841;28;19925;-84
2021/07/08 10:39:06;;;;;;;;;;;;;;;30.83;30.82;102160.59;4987371;28;19922;-82
2021/07/08 10:41:35;;;;;;;;;;;;;;;31.77;29.63;102149.78;4976807;28;19924;-82
2021/07/08 10:44:00;;;;;;;;;;;;;;;31.00;30.46;102151.19;4994412;28;19922;-82
2021/07/08 10:46:36;;;;;;;;;;;;;;;32.39;27.32;102148.91;4994975;28;19941;-82
2021/07/08 10:49:14;;;;;;;;;;;;;;;32.22;27.75;102161.25;4977317;28;19971;-83
2021/07/08 10:51:42;;;;;;;;;;;;;;;31.60;28.32;102162.94;4994338;28;20020;-82
2021/07/08 10:54:27;;;;;;;;;;;;;;;31.24;28.19;102168.97;4996903;28;19917;-82
2021/07/08 10:56:53;;;;;;;;;;;;;;;31.60;28.53;102163.81;4996418;28;20012;-82
2021/07/08 10:59:18;;;;;;;;;;;;;;;31.70;28.16;102158.00;4996457;28;20363;-81
2021/07/08 11:01:54;;;;;;;;;;;;;;;30.84;30.43;102149.25;4996463;28;20001;-83
2021/07/08 11:04:38;;;;;;;;;;;;;;;31.42;29.89;102138.00;4997409;28;19949;-83
2021/07/08 11:07:22;;;;;;;;;;;;;;;30.84;30.82;102128.81;4998537;28;19925;-83
2021/07/08 11:09:54;;;;;;;;;;;;;;;30.97;30.84;102128.28;4996568;28;19917;-80
2021/07/08 11:12:32;;;;;;;;;;;;;;;31.38;30.16;102133.81;4998140;28;19917;-80
2021/07/08 11:14:58;;;;;;;;;;;;;;;30.30;31.35;102137.66;5018399;28;20001;-83
2021/07/08 11:17:23;;;;;;;;;;;;;;;31.22;30.46;102140.31;4999784;28;20338;-85
2021/07/08 11:19:49;;;;;;;;;;;;;;;31.09;30.18;102130.56;4993822;28;21150;-81
2021/07/08 11:22:20;;;;;;;;;;;;;;;31.93;28.90;102138.50;4990291;28;19964;-80
2021/07/08 11:24:48;;;;;;;;;;;;;;;31.76;29.30;102136.81;5013861;28;19925;-83
2021/07/08 11:27:33;;;;;;;;;;;;;;;32.20;28.96;102130.63;4996274;28;19922;-82
2021/07/08 11:30:03;;;;;;;;;;;;;;;31.23;29.58;102131.75;4995140;28;20402;-79
2021/07/08 11:32:44;;;;;;;;;;;;;;;31.77;29.32;102131.03;5012339;28;19918;-78
2021/07/08 11:35:20;;;;;;;;;;;;;;;31.18;29.89;102122.16;4997355;28;19926;-81
2021/07/08 11:38:12;;;;;;;;;;;;;;;31.30;28.94;102120.72;4976402;28;19926;-79
2021/07/08 11:40:42;;;;;;;;;;;;;;;30.74;28.28;102120.63;4981675;28;19922;-79
2021/07/08 11:43:13;;;;;;;;;;;;;;;32.24;27.44;102114.38;5013702;28;19917;-80
2021/07/08 11:45:38;;;;;;;;;;;;;;;30.95;29.41;102116.41;4995180;28;20295;-79
2021/07/08 11:48:04;;;;;;;;;;;;;;;30.66;29.55;102110.31;4994047;28;19917;-80
2021/07/08 11:50:36;;;;;;;;;;;;;;;32.51;27.20;102104.50;5010241;28;19957;-80
2021/07/08 11:53:13;;;;;;;;;;;;;;;32.39;27.78;102106.88;5010881;28;19917;-79
2021/07/08 11:55:40;;;;;;;;;;;;;;;32.10;28.49;102111.28;5011986;28;20013;-80
2021/07/08 11:58:05;;;;;;;;;;;;;;;31.29;29.70;102118.97;5012297;28;19921;-80
2021/07/08 12:00:45;;;;;;;;;;;;;;;32.75;28.40;102122.19;5012289;28;20008;-81
2021/07/08 12:03:32;;;;;;;;;;;;;;;33.08;27.74;102119.06;5012357;28;19921;-80
2021/07/08 12:06:03;;;;;;;;;;;;;;;31.37;29.04;102124.53;4995114;28;19933;-80
2021/07/08 12:08:31;;;;;;;;;;;;;;;30.45;30.71;102122.00;5012918;28;19922;-81
2021/07/08 12:11:06;;;;;;;;;;;;;;;31.39;29.33;102128.03;5011707;28;19973;-81
2021/07/08 12:13:33;;;;;;;;;;;;;;;30.96;28.97;102130.19;5012643;28;19918;-80
2021/07/08 12:16:02;;;;;;;;;;;;;;;30.35;30.35;102132.47;5011648;28;19928;-79
2021/07/08 12:18:36;;;;;;;;;;;;;;;30.71;30.36;102124.63;5012823;28;20073;-81
2021/07/08 12:21:15;;;;;;;;;;;;;;;31.72;29.69;102132.63;5012467;28;20008;-80
2021/07/08 12:23:40;;;;;;;;;;;;;;;31.91;29.51;102125.72;5012584;28;19961;-79
2021/07/08 12:26:19;;;;;;;;;;;;;;;31.32;29.86;102128.94;5012432;28;19953;-80
2021/07/08 12:28:45;;;;;;;;;;;;;;;32.21;28.83;102132.41;4994864;28;20375;-81
2021/07/08 12:31:10;;;;;;;;;;;;;;;31.75;29.30;102141.56;4994698;28;19918;-79
2021/07/08 12:33:35;;;;;;;;;;;;;;;32.27;28.89;102130.78;5012520;28;20386;-79
2021/07/08 12:36:00;;;;;;;;;;;;;;;32.25;28.46;102127.28;5010771;28;19925;-79
2021/07/08 12:38:26;;;;;;;;;;;;;;;31.12;29.89;102131.25;5012121;28;20291;-79
2021/07/08 12:40:59;;;;;;;;;;;;;;;31.87;28.55;102130.84;4994712;28;19976;-78
2021/07/08 12:43:26;;;;;;;;;;;;;;;32.49;28.33;102132.72;5010883;28;20394;-79
2021/07/08 12:45:51;;;;;;;;;;;;;;;31.07;30.21;102141.06;5010733;28;20256;-80
2021/07/08 12:48:17;;;;;;;;;;;;;;;31.09;30.34;102140.88;4994501;28;20473;-80
2021/07/08 12:50:44;;;;;;;;;;;;;;;31.26;29.64;102142.56;5010439;28;19922;-81